Tiempo atmosférico en la estación meteorológica de Alcoy/Alcoi, Alacant/Alicante (600 m.)



Fecha
DESCASC
Temp. máxima en grados centígrados (hora)
DESCASC
Temp. mínima en grados centígrados (hora)
DESCASC
Temp. media en grados centígrados
DESCASC
Racha de viento máxima en m/sg (hora)
DESCASC
Velocidad máxima media en intervalos de 10 minutos(hora)
DESCASC
Precipitaciones diarias en mm
DESCASC
Precipitaciones de 00:00 a 06:00 en mm
DESCASC
Precipitaciones de 06:00 a 12:00 en mm
DESCASC
Precipitaciones de 12:00 a 18:00 en mm
DESCASC
Precipitaciones de 18:00 a 24:00 en mm
DESCASC
14-12-2019 15.7 (14:10) 9.2 (21:50) 12.4 13.06 (01:30) 6.39 (00:10) 0 0 0 0 0
13-12-2019 15.9 (16:10) 11.8 (00:10) 13.8 23.06 (08:40) 10.56 (12:20) 0 0 0 0 0
12-12-2019 11.9 (23:59) 7.2 (08:30) 9.5 22.22 (23:00) 10.56 (22:30) 0 0 0 0 0
11-12-2019 16.9 (13:20) 8 (00:00) 12.4 16.67 (15:00) 7.78 (15:00) 0 0 0 0 0
10-12-2019 18.3 (14:20) 6.2 (00:00) 12.2 8.33 (19:10) 5 (19:10) 0 0 0 0 0
09-12-2019 19.3 (13:20) 8.5 (00:00) 13.9 12.5 (15:50) 6.67 (16:00) 0 0 0 0 0
08-12-2019 18 (15:40) 6.9 (00:00) 12.5 10 (20:10) 5 (19:30) 0 0 0 0 0
07-12-2019 15.4 (15:20) 5.8 (00:00) 10.6 5.28 (22:10) 3.06 (21:10) 0 0 0 0 0
06-12-2019 11.6 (13:10) 8.1 (00:00) 9.9 3.89 (01:00) 2.22 (14:50) 0.2 0.2 0 0 0
05-12-2019 12.1 (15:00) 7 (00:00) 9.6 5 (16:50) 2.5 (16:40) 0.6 0 0 0 0.6
04-12-2019 10.2 (03:10) 6.8 (00:00) 8.5 12.78 (03:00) 6.67 (03:00) 52.6 37.6 14.2 0.6 0.2
03-12-2019 9.2 (00:00) 6.1 (00:00) 7.6 10.83 (11:30) 5.83 (14:10) 15.2 0.6 0.8 5.8 8
02-12-2019 10.6 (14:30) 7.5 (00:00) 9.1 8.33 (20:30) 4.17 (23:59) 20.8 0 1.6 0 19.2
01-12-2019 16.8 (13:50) 7.4 (00:00) 12.1 7.22 (15:50) 3.61 (06:20) 0 0 0 0 0
30-11-2019 21.2 (14:30) 9.7 (00:00) 15.5 10 (13:00) 5.83 (13:10) 0 0 0 0 0
29-11-2019 18.7 (15:40) 10.6 (00:00) 14.7 8.89 (11:30) 3.89 (11:30) 0 0 0 0 0
28-11-2019 17.3 (13:40) 10.5 (00:00) 13.9 12.5 (00:40) 5.83 (00:10) 0 0 0 0 0
27-11-2019 18.1 (13:50) 12 (00:00) 15.1 14.44 (14:30) 6.39 (14:20) 0 0 0 0 0
26-11-2019 19.6 (14:50) 11.6 (00:00) 15.6 9.44 (23:59) 5 (23:59) 0 0 0 0 0
25-11-2019 17.8 (14:40) 9.1 (00:00) 13.4 12.5 (15:10) 6.11 (10:20) 0 0 0 0 0
24-11-2019 13.8 (15:20) 7.3 (00:00) 10.6 14.72 (00:50) 7.5 (00:50) 0 0 0 0 0
23-11-2019 13.1 (00:00) 9.5 (00:00) 11.3 21.94 (09:00) 11.11 (13:00) 1 0.4 0.4 0.2 0
22-11-2019 15.3 (13:40) 7.7 (00:00) 11.5 15 (16:10) 6.39 (15:30) 6.4 0 0.2 1 5.2
21-11-2019 14.4 (16:10) 6.6 (00:00) 10.5 7.5 (15:20) 4.17 (15:20) 0.2 0 0 0 0.2
20-11-2019 14.7 (14:10) 3.7 (00:00) 9.2 6.67 (16:30) 3.33 (08:10) 0.8 0 0 0 0.8
19-11-2019 12.9 (14:50) 2 (00:00) 7.4 7.5 (13:50) 3.89 (03:10) 0 0 0 0 0
18-11-2019 13.1 (14:40) 4.4 (00:00) 8.8 6.67 (00:10) 3.61 (01:50) 3 3 0 0 0
17-11-2019 14 (15:40) 5.2 (00:00) 9.6 11.67 (07:30) 5.83 (16:20) 1.2 0 0 0 1.2
16-11-2019 13 (15:00) 3.2 (00:00) 8.1 10.56 (23:00) 3.89 (03:10) 0 0 0 0 0

Gráficas

Temp. máximas Temp. mínimas Temp. medias Precipitaciones Rachas de viento máximas Velocidades máximas media en intervalos de 10 minutos

Datos horarios

Fecha y hora oficial Temperatura (ºC) Velocidad del viento (km/h) Dirección del viento Racha (km/h) Dirección de racha Precipitación (mm) Presión (hPa) Tendencia (hPa) Humedad (%)
2019-12-15 23:00:00 8.7 6 Sudoeste 15 Sudoeste 0 -- -- 67
2019-12-15 22:00:00 9.4 9 Sudoeste 17 Sudoeste 0 -- -- 65
2019-12-15 21:00:00 9.6 9 Oeste 19 Sudoeste 0 -- -- 66
2019-12-15 20:00:00 10.3 8 Sudoeste 15 Sudoeste 0 -- -- 64
2019-12-15 19:00:00 11.6 6 Sudoeste 16 Sudoeste 0 -- -- 61
2019-12-15 18:00:00 12.4 9 Sudoeste 13 Sudoeste 0 -- -- 61
2019-12-15 17:00:00 14.9 0 Calma 11 Este 0 -- -- 52
2019-12-15 16:00:00 16.6 7 Nordeste 12 Sur 0 -- -- 48
2019-12-15 15:00:00 17.8 5 Sur 13 Sudeste 0 -- -- 41
2019-12-15 14:00:00 17.6 4 Nordeste 15 Este 0 -- -- 38
2019-12-15 13:00:00 16.9 5 Sudeste 18 Sudoeste 0 -- -- 42
2019-12-15 12:00:00 15.4 6 Sur 15 Sudoeste 0 -- -- 45
2019-12-15 11:00:00 12.8 7 Sudoeste 13 Sudoeste 0 -- -- 55
2019-12-15 10:00:00 10 8 Sudoeste 15 Sudoeste 0 -- -- 64
2019-12-15 09:00:00 7.7 9 Sudoeste 20 Sudoeste 0 -- -- 72
2019-12-15 08:00:00 8.2 10 Sudoeste 21 Oeste 0 -- -- 71
2019-12-15 07:00:00 8.4 8 Sudoeste 19 Sudoeste 0 -- -- 70
2019-12-15 06:00:00 8.1 10 Sudoeste 20 Sudoeste 0 -- -- 71
2019-12-15 05:00:00 7.5 5 Sudoeste 20 Sudoeste 0 -- -- 75
2019-12-15 04:00:00 8 8 Sudoeste 21 Sudoeste 0 -- -- 73
2019-12-15 03:00:00 7.3 9 Sudoeste 14 Sudoeste 0 -- -- 77
2019-12-15 02:00:00 7.6 8 Sudoeste 15 Sudoeste 0 -- -- 76
2019-12-15 01:00:00 8.5 10 Sudoeste 22 Sudoeste 0 -- -- 72
2019-12-15 00:00:00 9.4 11 Sudoeste 21 Sudoeste 0 -- -- 68
2019-12-14 23:00:00 9.3 9 Sudoeste 29 Oeste 0 -- -- 68
2019-12-14 22:00:00 9.2 5 Sudoeste 18 Sudoeste 0 -- -- 68
2019-12-14 21:00:00 9.4 4 Sudoeste 25 Oeste 0 -- -- 67
2019-12-14 20:00:00 10.2 10 Oeste 28 Oeste 0 -- -- 65
2019-12-14 19:00:00 10.9 11 Sudoeste 23 Oeste 0 -- -- 65
2019-12-14 18:00:00 11.6 9 Oeste 22 Sudoeste 0 -- -- 63
2019-12-14 17:00:00 12.8 10 Oeste 28 Oeste 0 -- -- 60
2019-12-14 16:00:00 14.2 9 Oeste 28 Sudoeste 0 -- -- 57
2019-12-14 15:00:00 14.9 10 Sudoeste 33 Oeste 0 -- -- 56
2019-12-14 14:00:00 15.2 12 Oeste 31 Sudoeste 0 -- -- 56
2019-12-14 13:00:00 14 20 Oeste 43 Oeste 0 -- -- 61
2019-12-14 12:00:00 14.5 15 Oeste 38 Oeste 0 -- -- 59
2019-12-14 11:00:00 14.8 7 Oeste 31 Oeste 0 -- -- 57
2019-12-14 10:00:00 12.8 10 Oeste 20 Sudoeste 0 -- -- 63
2019-12-14 09:00:00 11 10 Oeste 23 Oeste 0 -- -- 68
2019-12-14 08:00:00 11.4 11 Sudoeste 24 Sudoeste 0 -- -- 65
2019-12-14 07:00:00 10.9 3 Sudoeste 26 Oeste 0 -- -- 68
2019-12-14 06:00:00 11.5 8 Sudoeste 39 Oeste 0 -- -- 66
2019-12-14 05:00:00 11.8 10 Sudoeste 24 Noroeste 0 -- -- 65
2019-12-14 04:00:00 12.2 11 Sudoeste 32 Oeste 0 -- -- 64
2019-12-14 03:00:00 12.1 9 Sur 27 Oeste 0 -- -- 67
2019-12-14 02:00:00 12.6 10 Sur 47 Sudoeste 0 -- -- 66
2019-12-14 01:00:00 13 9 Sudoeste 43 Oeste 0 -- -- 65
2019-12-14 00:00:00 13.4 17 Oeste 42 Sudoeste 0 -- -- 64
2019-12-13 23:00:00 13.4 4 Sur 44 Oeste 0 -- -- 66
2019-12-13 22:00:00 13.9 19 Oeste 55 Oeste 0 -- -- 65
2019-12-13 21:00:00 14 26 Oeste 59 Oeste 0 -- -- 65
2019-12-13 20:00:00 14.2 20 Oeste 57 Oeste 0 -- -- 62
2019-12-13 19:00:00 14.7 20 Oeste 55 Sudoeste 0 -- -- 60
2019-12-13 18:00:00 15.3 24 Oeste 56 Noroeste 0 -- -- 58
2019-12-13 17:00:00 15.6 17 Oeste 57 Oeste 0 -- -- 56
2019-12-13 16:00:00 15.8 18 Oeste 54 Oeste 0 -- -- 55
2019-12-13 15:00:00 15.6 22 Oeste 69 Noroeste 0 -- -- 55
2019-12-13 14:00:00 15 28 Oeste 75 Noroeste 0 -- -- 56
2019-12-13 13:00:00 14.6 31 Oeste 82 Oeste 0 -- -- 58
2019-12-13 12:00:00 14.6 31 Oeste 75 Oeste 0 -- -- 59
2019-12-13 11:00:00 14.4 28 Oeste 64 Oeste 0 -- -- 60
2019-12-13 10:00:00 14.1 24 Oeste 66 Noroeste 0 -- -- 63
2019-12-13 09:00:00 14 26 Oeste 83 Sudoeste 0 -- -- 68
2019-12-13 08:00:00 13.6 32 Oeste 69 Oeste 0 -- -- 71
2019-12-13 07:00:00 13.5 34 Oeste 76 Oeste 0 -- -- 71
2019-12-13 06:00:00 13.2 32 Oeste 69 Sudoeste 0 -- -- 71
2019-12-13 05:00:00 13 35 Oeste 75 Oeste 0 -- -- 70
2019-12-13 04:00:00 13 36 Oeste 73 Oeste 0 -- -- 70
2019-12-13 03:00:00 12.7 36 Oeste 71 Oeste 0 -- -- 68
2019-12-13 02:00:00 12.6 31 Oeste 78 Oeste 0 -- -- 67
2019-12-13 01:00:00 12.2 30 Oeste 68 Oeste 0 -- -- 67
2019-12-13 00:00:00 11.9 20 Oeste 71 Oeste 0 -- -- 66
2019-12-12 23:00:00 11.5 34 Oeste 80 Oeste 0 -- -- 65
2019-12-12 22:00:00 11.4 35 Oeste 74 Oeste 0 -- -- 64
2019-12-12 21:00:00 10.6 28 Oeste 75 Oeste 0 -- -- 66
2019-12-12 20:00:00 10.4 32 Oeste 70 Sudoeste 0 -- -- 64
2019-12-12 19:00:00 10.1 16 Oeste 49 Oeste 0 -- -- 63
2019-12-12 18:00:00 10.1 15 Oeste 31 Sudoeste 0 -- -- 63
2019-12-12 17:00:00 9.8 13 Oeste 35 Oeste 0 -- -- 60
2019-12-12 16:00:00 9.7 13 Sudoeste 30 Sudoeste 0 -- -- 60
2019-12-12 15:00:00 9.6 19 Sudoeste 42 Sudoeste 0 -- -- 59
2019-12-12 14:00:00 10.1 17 Sudoeste 43 Oeste 0 -- -- 56
2019-12-12 13:00:00 11.6 18 Sudoeste 44 Sudoeste 0 -- -- 52
2019-12-12 12:00:00 11.7 19 Oeste 41 Oeste 0 -- -- 49
2019-12-12 11:00:00 10.7 10 Oeste 36 Sudoeste 0 -- -- 53
2019-12-12 10:00:00 9.2 13 Oeste 29 Oeste 0 -- -- 56
2019-12-12 09:00:00 8.2 10 Sudoeste 23 Oeste 0 -- -- 59
2019-12-12 08:00:00 8 6 Oeste 14 Oeste 0 -- -- 60
2019-12-12 07:00:00 7.6 3 Sur 25 Sudoeste 0 -- -- 59
2019-12-12 06:00:00 7.6 16 Sudoeste 31 Sudoeste 0 -- -- 57
2019-12-12 05:00:00 7.5 15 Oeste 37 Oeste 0 -- -- 56
2019-12-12 04:00:00 7.8 9 Oeste 32 Oeste 0 -- -- 55
2019-12-12 03:00:00 8.3 11 Oeste 26 Oeste 0 -- -- 51
2019-12-12 02:00:00 7.4 5 Sur 15 Sudeste 0 -- -- 58
2019-12-12 01:00:00 8.1 6 Sudoeste 22 Noroeste 0 -- -- 56
2019-12-12 00:00:00 8.7 10 Oeste 17 Sudoeste 0 -- -- 54
2019-12-11 23:00:00 8.3 4 Sudoeste 17 Oeste 0 -- -- 59
2019-12-11 22:00:00 8.6 7 Sur 24 Noroeste 0 -- -- 56
2019-12-11 21:00:00 9.2 10 Noroeste 27 Oeste 0 -- -- 54
2019-12-11 20:00:00 9.5 5 Sudoeste 33 Oeste 0 -- -- 61
2019-12-11 19:00:00 10.7 7 Oeste 39 Sudoeste 0 -- -- 58
2019-12-11 18:00:00 11.9 13 Oeste 37 Oeste 0 -- -- 53
2019-12-11 17:00:00 13.4 15 Oeste 48 Oeste 0 -- -- 53
2019-12-11 16:00:00 14.3 17 Oeste 52 Oeste 0 -- -- 46
2019-12-11 15:00:00 13.8 28 Oeste 60 Sudoeste 0 -- -- 46
2019-12-11 14:00:00 16.4 18 Oeste 45 Oeste 0 -- -- 35
2019-12-11 13:00:00 16.1 9 Oeste 32 Sudoeste 0 -- -- 32
2019-12-11 12:00:00 16.1 15 Oeste 36 Oeste 0 -- -- 29
2019-12-11 11:00:00 15.5 11 Oeste 26 Sudoeste 0 -- -- 27
2019-12-11 10:00:00 13.1 6 Sudoeste 25 Sudoeste 0 -- -- 31
2019-12-11 09:00:00 11 9 Sur 33 Oeste 0 -- -- 34
2019-12-11 08:00:00 10.4 9 Sudoeste 18 Sur 0 -- -- 36
2019-12-11 07:00:00 11.3 9 Sudoeste 30 Sur 0 -- -- 31
2019-12-11 06:00:00 11.1 20 Sudoeste 27 Sudoeste 0 -- -- 29
2019-12-11 05:00:00 10.5 15 Sudoeste 23 Sudoeste 0 -- -- 29
2019-12-11 04:00:00 12 15 Sudoeste 25 Sudoeste 0 -- -- 25
2019-12-11 03:00:00 10.1 10 Sudoeste 28 Sudoeste 0 -- -- 36
2019-12-11 02:00:00 9.9 9 Sur 22 Sudoeste 0 -- -- 41
2019-12-11 01:00:00 8.5 8 Sudoeste 15 Sudoeste 0 -- -- 48
2019-12-11 00:00:00 8.3 6 Sudoeste 21 Sur 0 -- -- 51
2019-12-10 23:00:00 9.4 12 Sudoeste 22 Sur 0 -- -- 46
2019-12-10 22:00:00 9.4 12 Sudoeste 22 Sudoeste 0 -- -- 48
2019-12-10 21:00:00 9.9 11 Sudoeste 20 Sudoeste 0 -- -- 51
2019-12-10 20:00:00 13.1 15 Sudoeste 30 Sudoeste 0 -- -- 40
2019-12-10 19:00:00 13.2 18 Sudoeste 28 Sudoeste 0 -- -- 44
2019-12-10 18:00:00 13.9 7 Sudoeste 18 Sudoeste 0 -- -- 43
2019-12-10 17:00:00 15.7 7 Sudoeste 12 Oeste 0 -- -- 36
2019-12-10 16:00:00 17.8 3 Nordeste 13 Este 0 -- -- 29
2019-12-10 15:00:00 17.9 6 Este 9 Este 0 -- -- 29
2019-12-10 14:00:00 17.4 4 Nordeste 10 Este 0 -- -- 29
2019-12-10 13:00:00 16.3 5 Este 11 Este 0 -- -- 31
2019-12-10 12:00:00 15.7 3 Este 6 Nordeste 0 -- -- 31
2019-12-10 11:00:00 14.3 3 Sudoeste 8 Sur 0 -- -- 34
2019-12-10 10:00:00 12.3 3 Noroeste 8 Sudoeste 0 -- -- 37
2019-12-10 09:00:00 6.5 4 Oeste 20 Sudoeste 0 -- -- 52
2019-12-10 08:00:00 6.3 5 Oeste 15 Sudoeste 0 -- -- 54
2019-12-10 07:00:00 6.7 9 Sur 21 Sudoeste 0 -- -- 55
2019-12-10 06:00:00 8 15 Sudoeste 21 Sudoeste 0 -- -- 50
2019-12-10 05:00:00 8 13 Sudoeste 20 Sudoeste 0 -- -- 51
2019-12-10 04:00:00 8.9 11 Sudoeste 22 Sudoeste 0 -- -- 49
2019-12-10 03:00:00 7.8 10 Sudoeste 16 Oeste 0 -- -- 55
2019-12-10 02:00:00 9.3 10 Sudoeste 17 Oeste 0 -- -- 51
2019-12-10 01:00:00 10.3 9 Oeste 17 Oeste 0 -- -- 48
2019-12-10 00:00:00 10.3 4 Sudoeste 10 Oeste 0 -- -- 48
2019-12-09 23:00:00 9.7 4 Sur 14 Oeste 0 -- -- 52
2019-12-09 22:00:00 11 11 Oeste 20 Oeste 0 -- -- 48
2019-12-09 21:00:00 11 6 Oeste 15 Sudoeste 0 -- -- 49
2019-12-09 20:00:00 11.3 6 Oeste 17 Sur 0 -- -- 48
2019-12-09 19:00:00 12.5 5 Sudoeste 24 Oeste 0 -- -- 43
2019-12-09 18:00:00 13.1 5 Sur 21 Oeste 0 -- -- 44
2019-12-09 17:00:00 14.6 10 Oeste 40 Oeste 0 -- -- 40
2019-12-09 16:00:00 16.4 24 Oeste 45 Oeste 0 -- -- 35
2019-12-09 15:00:00 18.4 15 Oeste 39 Oeste 0 -- -- 26
2019-12-09 14:00:00 18.5 18 Noroeste 41 Oeste 0 -- -- 23
2019-12-09 13:00:00 17.7 13 Oeste 31 Oeste 0 -- -- 31
2019-12-09 12:00:00 16 10 Sudoeste 22 Sudoeste 0 -- -- 36
2019-12-09 11:00:00 13.8 12 Sudoeste 28 Oeste 0 -- -- 47
2019-12-09 10:00:00 11.3 18 Sudoeste 27 Oeste 0 -- -- 57
2019-12-09 09:00:00 9.5 7 Sudoeste 22 Sudoeste 0 -- -- 69
2019-12-09 08:00:00 9.1 6 Sudoeste 23 Sudoeste 0 -- -- 71
2019-12-09 07:00:00 10.4 16 Sudoeste 29 Sudoeste 0 -- -- 71
2019-12-09 06:00:00 10.4 11 Sudoeste 27 Sudoeste 0 -- -- 76
2019-12-09 05:00:00 10.9 14 Oeste 35 Oeste 0 -- -- 77
2019-12-09 04:00:00 11.4 13 Sudoeste 23 Oeste 0 -- -- 76
2019-12-09 03:00:00 11.7 11 Sudoeste 30 Oeste 0 -- -- 76
2019-12-09 02:00:00 12.5 13 Sudoeste 22 Sudoeste 0 -- -- 72
2019-12-09 01:00:00 12.5 14 Oeste 23 Sudoeste 0 -- -- 71
2019-12-09 00:00:00 12.2 7 Sur 27 Oeste 0 -- -- 68
2019-12-08 23:00:00 11.9 13 Sudoeste 22 Oeste 0 -- -- 65
2019-12-08 22:00:00 11.6 8 Sudoeste 17 Oeste 0 -- -- 64
2019-12-08 21:00:00 12.5 6 Oeste 36 Oeste 0 -- -- 58
2019-12-08 20:00:00 12.7 14 Oeste 35 Oeste 0 -- -- 60
2019-12-08 19:00:00 13.3 10 Oeste 26 Oeste 0 -- -- 57
2019-12-08 18:00:00 13.4 10 Oeste 19 Oeste 0 -- -- 58
2019-12-08 17:00:00 15.3 9 Oeste 21 Oeste 0 -- -- 53
2019-12-08 16:00:00 17.9 5 Oeste 19 Oeste 0 -- -- 49
2019-12-08 15:00:00 17.8 11 Oeste 19 Oeste 0 -- -- 44
2019-12-08 14:00:00 17.1 6 Sudoeste 14 Oeste 0 -- -- 47
2019-12-08 13:00:00 15.5 8 Este 12 Este 0 -- -- 60
2019-12-08 12:00:00 14.5 5 Nordeste 13 Sudoeste 0 -- -- 61
2019-12-08 11:00:00 14.2 5 Sur 11 Sur 0 -- -- 57
2019-12-08 10:00:00 11.2 5 Sur 17 Sur 0 -- -- 66
2019-12-08 09:00:00 7.8 8 Sudoeste 18 Sur 0 -- -- 74
2019-12-08 08:00:00 7 9 Sudoeste 21 Sudoeste 0 -- -- 77
2019-12-08 07:00:00 7.1 9 Sudoeste 19 Sudoeste 0 -- -- 78
2019-12-08 06:00:00 7.3 9 Sudoeste 19 Sudoeste 0 -- -- 80
2019-12-08 05:00:00 7.4 7 Sudoeste 21 Sudoeste 0 -- -- 80
2019-12-08 04:00:00 7.2 12 Sudoeste 22 Sudoeste 0 -- -- 82
2019-12-08 03:00:00 7.2 6 Sudoeste 22 Sudoeste 0 -- -- 84
2019-12-08 02:00:00 7.6 13 Sudoeste 21 Sudoeste 0 -- -- 84
2019-12-08 01:00:00 7.4 6 Sudoeste 15 Sudoeste 0 -- -- 86
2019-12-08 00:00:00 8.1 9 Oeste 18 Sudoeste 0 -- -- 83
2019-12-07 23:00:00 7.9 8 Sudoeste 19 Sudoeste 0 -- -- 84
2019-12-07 22:00:00 8.4 11 Sudoeste 18 Sudoeste 0 -- -- 82
2019-12-07 21:00:00 8.8 9 Sudoeste 14 Sudoeste 0 -- -- 81
2019-12-07 20:00:00 9.2 6 Sudoeste 15 Oeste 0 -- -- 80
2019-12-07 19:00:00 9.8 7 Sudoeste 15 Sudoeste 0 -- -- 79
2019-12-07 18:00:00 11.4 5 Sudoeste 10 Sudoeste 0 -- -- 75
2019-12-07 17:00:00 13.8 4 Este 11 Este 0 -- -- 66
2019-12-07 16:00:00 15.1 7 Este 14 Este 0 -- -- 60
2019-12-07 15:00:00 15.2 7 Este 15 Este 0 -- -- 64
2019-12-07 14:00:00 14.6 7 Este 17 Este 0 -- -- 63
2019-12-07 13:00:00 14.2 6 Nordeste 10 Nordeste 0 -- -- 67
2019-12-07 12:00:00 13.2 3 Este 9 Este 0 -- -- 70
2019-12-07 11:00:00 12.5 2 Sudoeste 5 Oeste 0 -- -- 70
2019-12-07 10:00:00 9.3 0 Calma 10 Sudoeste 0 -- -- 82
2019-12-07 09:00:00 7.1 5 Sudoeste 15 Sudoeste 0 -- -- 94
2019-12-07 08:00:00 7.9 4 Sudoeste 9 Sudoeste 0 -- -- 91
2019-12-07 07:00:00 7.9 5 Sudoeste 11 Sudoeste 0 -- -- 91
2019-12-07 06:00:00 7.6 6 Sudoeste 11 Sudoeste 0 -- -- 91
2019-12-07 05:00:00 7.3 6 Sudoeste 11 Sudoeste 0 -- -- 92
2019-12-07 04:00:00 7 6 Oeste 11 Oeste 0 -- -- 96
2019-12-07 03:00:00 6 0 Calma 10 Sudoeste 0 -- -- 96
2019-12-07 02:00:00 8.1 6 Sudoeste 12 Sudoeste 0 -- -- 93
2019-12-07 01:00:00 7.5 4 Oeste 8 Sudoeste 0 -- -- 98
2019-12-07 00:00:00 8.1 2 Oeste 4 Oeste 0 -- -- 95
2019-12-06 23:00:00 8.8 2 Oeste 4 Oeste 0 -- -- 96
2019-12-06 22:00:00 8.8 0 Calma 5 Oeste 0 -- -- 96
2019-12-06 21:00:00 9.3 0 Calma 2 Noroeste 0 -- -- 96
2019-12-06 20:00:00 9.2 0 Calma 6 Nordeste 0 -- -- 96
2019-12-06 19:00:00 8.8 0 Calma 2 Noroeste 0 -- -- 95
2019-12-06 18:00:00 10 0 Calma 8 Nordeste 0 -- -- 90
2019-12-06 17:00:00 11.1 4 Este 10 Este 0 -- -- 86
2019-12-06 16:00:00 11.4 6 Este 13 Este 0 -- -- 84
2019-12-06 15:00:00 11.6 6 Este 14 Este 0 -- -- 80
2019-12-06 14:00:00 11.5 6 Este 11 Este 0 -- -- 83
2019-12-06 13:00:00 11.3 4 Nordeste 10 Nordeste 0 -- -- 79
2019-12-06 12:00:00 10.8 4 Este 9 Este 0 -- -- 85
2019-12-06 11:00:00 10 3 Este 8 Este 0 -- -- 95
2019-12-06 10:00:00 9 0 Calma 3 Este 0 -- -- 98
2019-12-06 09:00:00 8.6 0 Calma 3 Este 0 -- -- 99
2019-12-06 08:00:00 8.5 0 Calma 7 Este 0 -- -- 99
2019-12-06 07:00:00 8.7 0 Calma 7 Sudeste 0 -- -- 99
2019-12-06 06:00:00 8.9 3 Este 8 Este 0 -- -- 99
2019-12-06 05:00:00 9 3 Este 9 Nordeste 0 -- -- 99
2019-12-06 04:00:00 9.2 5 Nordeste 9 Nordeste 0 -- -- 99
2019-12-06 03:00:00 9.3 3 Nordeste 9 Nordeste 0 -- -- 98
2019-12-06 02:00:00 9.3 5 Nordeste 13 Nordeste 0 -- -- 98
2019-12-06 01:00:00 9.4 6 Nordeste 14 Nordeste 0.2 -- -- 98
2019-12-06 00:00:00 9.5 6 Nordeste 13 Nordeste 0 -- -- 98
2019-12-05 23:00:00 9.6 6 Nordeste 11 Nordeste 0.4 -- -- 97
2019-12-05 22:00:00 9.5 2 Nordeste 5 Nordeste 0.2 -- -- 96
2019-12-05 21:00:00 9.5 2 Nordeste 4 Nordeste 0 -- -- 94
2019-12-05 20:00:00 9.3 0 Calma 5 Nordeste 0 -- -- 93
2019-12-05 19:00:00 9.4 0 Calma 5 Nordeste 0 -- -- 90
2019-12-05 18:00:00 9.4 0 Calma 13 Nordeste 0 -- -- 90
2019-12-05 17:00:00 10.8 7 Nordeste 18 Nordeste 0 -- -- 84
2019-12-05 16:00:00 11.6 5 Este 15 Este 0 -- -- 82
2019-12-05 15:00:00 12.1 6 Este 12 Este 0 -- -- 81
2019-12-05 14:00:00 10.8 7 Este 11 Este 0 -- -- 87
2019-12-05 13:00:00 10.8 6 Este 13 Este 0 -- -- 85
2019-12-05 12:00:00 10.8 4 Este 12 Este 0 -- -- 86
2019-12-05 11:00:00 10.5 4 Este 8 Sudeste 0 -- -- 91
2019-12-05 10:00:00 8.6 0 Calma 3 Sudeste 0 -- -- 97
2019-12-05 09:00:00 7.9 0 Calma 4 Nordeste 0 -- -- 97
2019-12-05 08:00:00 7.8 0 Calma 4 Este 0 -- -- 96
2019-12-05 07:00:00 7.6 0 Calma 3 Este 0 -- -- 94
2019-12-05 06:00:00 7.4 0 Calma 4 Nordeste 0 -- -- 96
2019-12-05 05:00:00 7.1 0 Calma 5 Noroeste 0 -- -- 94
2019-12-05 04:00:00 8 3 Sudoeste 8 Sudoeste 0 -- -- 87
2019-12-05 03:00:00 8.7 4 Sudoeste 10 Sudoeste 0 -- -- 86
2019-12-05 02:00:00 8.7 5 Sudoeste 10 Sudoeste 0 -- -- 85
2019-12-05 01:00:00 8.8 4 Sudoeste 10 Sur 0 -- -- 84
2019-12-05 00:00:00 8.7 4 Sur 12 Sudoeste 0 -- -- 86
2019-12-04 23:00:00 9.2 4 Oeste 13 Sudoeste 0 -- -- 84
2019-12-04 22:00:00 8.2 0 Calma 10 Sudoeste 0 -- -- 94
2019-12-04 21:00:00 8 0 Calma 5 Sur 0 -- -- 96
2019-12-04 20:00:00 8.2 0 Calma 10 Nordeste 0.2 -- -- 94
2019-12-04 19:00:00 8.6 3 Nordeste 6 Nordeste 0 -- -- 92
2019-12-04 18:00:00 9 0 Calma 6 Sur 0 -- -- 87
2019-12-04 17:00:00 9.3 3 Sudoeste 9 Sudoeste 0 -- -- 84
2019-12-04 16:00:00 9.1 4 Este 8 Este 0 -- -- 88
2019-12-04 15:00:00 9.2 4 Este 12 Este 0 -- -- 87
2019-12-04 14:00:00 8.9 9 Nordeste 19 Nordeste 0 -- -- 88
2019-12-04 13:00:00 8.2 7 Nordeste 27 Norte 0.6 -- -- 93
2019-12-04 12:00:00 8.8 8 Nordeste 20 Nordeste 3.2 -- -- 97
2019-12-04 11:00:00 9 8 Nordeste 18 Nordeste 0.8 -- -- 97
2019-12-04 10:00:00 8.5 8 Nordeste 18 Norte 1.6 -- -- 98
2019-12-04 09:00:00 8 4 Este 12 Nordeste 2.4 -- -- 97
2019-12-04 08:00:00 8.2 9 Nordeste 30 Norte 1.2 -- -- 96
2019-12-04 07:00:00 9.2 12 Norte 39 Norte 5 -- -- 88
2019-12-04 06:00:00 8.5 8 Nordeste 26 Nordeste 8.8 -- -- 97
2019-12-04 05:00:00 8.6 11 Nordeste 40 Norte 9.6 -- -- 96
2019-12-04 04:00:00 10 16 Norte 46 Norte 4.6 -- -- 89
2019-12-04 03:00:00 10.1 24 Norte 46 Norte 4 -- -- 94
2019-12-04 02:00:00 9.8 17 Nordeste 43 Norte 7.4 -- -- 91
2019-12-04 01:00:00 9.1 13 Nordeste 27 Nordeste 3.2 -- -- 91
2019-12-04 00:00:00 6.8 4 Sudoeste 12 Sudoeste 1.6 -- -- 94
2019-12-03 23:00:00 6.4 2 Oeste 15 Este 1.8 -- -- 95
2019-12-03 22:00:00 6.5 6 Este 16 Nordeste -- -- -- 91
2019-12-03 21:00:00 7 6 Nordeste 22 Nordeste 1.2 -- -- 91
2019-12-03 20:00:00 6.9 10 Nordeste 28 Nordeste 0.6 -- -- 92
2019-12-03 19:00:00 6.8 12 Nordeste 33 Norte 0.6 -- -- 95
2019-12-03 18:00:00 7.1 18 Nordeste 36 Nordeste 0.2 -- -- 94
2019-12-03 17:00:00 6.9 11 Nordeste 34 Nordeste 2 -- -- 96
2019-12-03 16:00:00 7.1 9 Nordeste 34 Nordeste 0.6 -- -- 94
2019-12-03 15:00:00 7.7 17 Nordeste 39 Nordeste 0.8 -- -- 94
2019-12-03 14:00:00 8.4 18 Nordeste 33 Nordeste 1.6 -- -- 97
2019-12-03 13:00:00 7.9 17 Nordeste 33 Norte 0.6 -- -- 96
2019-12-03 12:00:00 8 17 Nordeste 39 Nordeste 0.2 -- -- 96
2019-12-03 11:00:00 8.2 19 Nordeste 35 Nordeste 0.4 -- -- 96
2019-12-03 10:00:00 8.5 14 Nordeste 27 Nordeste 0.2 -- -- 94
2019-12-03 09:00:00 8.7 18 Nordeste 35 Norte 0 -- -- 88
2019-12-03 08:00:00 9 14 Nordeste 32 Nordeste 0 -- -- 86
2019-12-03 07:00:00 9 15 Nordeste 35 Nordeste 0 -- -- 86
2019-12-03 06:00:00 8.9 15 Nordeste 32 Nordeste 0 -- -- 89
2019-12-03 05:00:00 8.5 16 Nordeste 32 Norte 0.2 -- -- 93
2019-12-03 04:00:00 8.4 11 Nordeste 28 Nordeste 0 -- -- 91
2019-12-03 03:00:00 8.6 10 Nordeste 28 Nordeste 0.2 -- -- 91
2019-12-03 02:00:00 8.9 10 Nordeste 25 Nordeste 0.2 -- -- 93
2019-12-03 01:00:00 8.9 14 Nordeste 30 Norte 0 -- -- 88
2019-12-03 00:00:00 9.2 15 Nordeste 27 Norte 3 -- -- 97
2019-12-02 23:00:00 9.6 14 Nordeste 28 Nordeste 7.2 -- -- 97
2019-12-02 22:00:00 9.9 11 Nordeste 25 Nordeste 3.8 -- -- 97
2019-12-02 21:00:00 10.1 12 Nordeste 30 Nordeste 2.6 -- -- 96
2019-12-02 20:00:00 9.9 5 Nordeste 13 Norte 1.8 -- -- 96
2019-12-02 19:00:00 10.1 4 Nordeste 7 Este 0.8 -- -- 95
2019-12-02 18:00:00 10 2 Este 6 Este 0 -- -- 92
2019-12-02 17:00:00 10.1 3 Este 10 Este 0 -- -- 91
2019-12-02 16:00:00 10.3 6 Este 12 Nordeste 0 -- -- 90
2019-12-02 15:00:00 10.2 6 Nordeste 11 Nordeste 0 -- -- 90
2019-12-02 14:00:00 10.2 3 Sudeste 13 Sudoeste 0 -- -- 89
2019-12-02 13:00:00 9.6 3 Sudoeste 16 Sudoeste 0 -- -- 93
2019-12-02 12:00:00 9.3 2 Este 14 Este 0 -- -- 92
2019-12-02 11:00:00 9.2 4 Este 17 Nordeste 0 -- -- 94
2019-12-02 10:00:00 9.2 5 Este 16 Nordeste 0 -- -- 94
2019-12-02 09:00:00 8.7 6 Este 16 Este 1.6 -- -- 96
2019-12-02 08:00:00 9 3 Sudeste 16 Norte 0 -- -- 93
2019-12-02 07:00:00 9 9 Nordeste 20 Nordeste 0 -- -- 93
2019-12-02 06:00:00 8.6 2 Este 6 Nordeste 0 -- -- 88
2019-12-02 05:00:00 8.1 0 Calma 5 Sudoeste 0 -- -- 86
2019-12-02 04:00:00 8.5 0 Calma 6 Norte 0 -- -- 83
2019-12-02 03:00:00 8.7 0 Calma 6 Sudoeste 0 -- -- 78
2019-12-02 02:00:00 7.8 0 Calma 5 Sudoeste 0 -- -- 79
2019-12-02 01:00:00 7.7 2 Sudoeste 8 Oeste 0 -- -- 76
2019-12-02 00:00:00 8 5 Oeste 11 Sudoeste 0 -- -- 73
2019-12-01 23:00:00 8 3 Oeste 13 Sudoeste 0 -- -- 72
2019-12-01 22:00:00 7.6 8 Sudoeste 14 Sudoeste 0 -- -- 74
2019-12-01 21:00:00 7.9 4 Oeste 14 Sudoeste 0 -- -- 76
2019-12-01 20:00:00 9 6 Sudoeste 13 Oeste 0 -- -- 69
2019-12-01 19:00:00 9.8 3 Oeste 9 Este 0 -- -- 67
2019-12-01 18:00:00 11.9 2 Noroeste 9 Sudoeste 0 -- -- 56
2019-12-01 17:00:00 13.7 4 Sur 17 Oeste 0 -- -- 55
2019-12-01 16:00:00 15.7 10 Oeste 26 Oeste 0 -- -- 50
2019-12-01 15:00:00 15.9 5 Oeste 19 Noroeste 0 -- -- 50
2019-12-01 14:00:00 16.6 8 Sudoeste 18 Oeste 0 -- -- 51
2019-12-01 13:00:00 15.2 7 Oeste 19 Sudoeste 0 -- -- 56
2019-12-01 12:00:00 15.4 8 Oeste 16 Oeste 0 -- -- 56
2019-12-01 11:00:00 14.5 6 Sur 14 Sudoeste 0 -- -- 62
2019-12-01 10:00:00 11.7 5 Sur 16 Sudoeste 0 -- -- 75
2019-12-01 09:00:00 11.6 6 Sudoeste 22 Sudoeste 0 -- -- 77
2019-12-01 08:00:00 10.6 10 Sudoeste 16 Sudoeste 0 -- -- 77
2019-12-01 07:00:00 10.5 9 Sudoeste 19 Sudoeste 0 -- -- 77
2019-12-01 06:00:00 11.1 10 Sudoeste 15 Sudoeste 0 -- -- 73
2019-12-01 05:00:00 11.6 8 Sudoeste 15 Sudoeste 0 -- -- 69
2019-12-01 04:00:00 11.5 12 Sudoeste 17 Sudoeste 0 -- -- 65
2019-12-01 03:00:00 12.9 10 Sudoeste 17 Sur 0 -- -- 59
2019-12-01 02:00:00 12.6 9 Sudoeste 19 Sudoeste 0 -- -- 61
2019-12-01 01:00:00 11.2 12 Sudoeste 17 Sudoeste 0 -- -- 74
2019-12-01 00:00:00 12.3 10 Sudoeste 17 Sudoeste 0 -- -- 73
2019-11-30 23:00:00 12.5 10 Sudoeste 17 Sudoeste 0 -- -- 70
2019-11-30 22:00:00 12.5 4 Sudoeste 10 Oeste 0 -- -- 69
2019-11-30 21:00:00 13.6 3 Oeste 13 Oeste 0 -- -- 63
2019-11-30 20:00:00 15.2 11 Sudoeste 16 Sudoeste 0 -- -- 56
2019-11-30 19:00:00 15.6 8 Sudoeste 13 Sudoeste 0 -- -- 59
2019-11-30 18:00:00 16.6 3 Sudoeste 11 Sudoeste 0 -- -- 55
2019-11-30 17:00:00 19.3 6 Sudoeste 19 Sudoeste 0 -- -- 48
2019-11-30 16:00:00 21.1 14 Oeste 31 Sudoeste 0 -- -- 35
2019-11-30 15:00:00 21 17 Sudoeste 32 Sudoeste 0 -- -- 33
2019-11-30 14:00:00 20.7 16 Sudoeste 35 Sudoeste 0 -- -- 35
2019-11-30 13:00:00 19.8 17 Oeste 36 Oeste 0 -- -- 37
2019-11-30 12:00:00 18.6 11 Sudoeste 21 Sudoeste 0 -- -- 48
2019-11-30 11:00:00 16.4 8 Sur 13 Sur 0 -- -- 65
2019-11-30 10:00:00 13.7 5 Sudoeste 19 Sudoeste 0 -- -- 73
2019-11-30 09:00:00 11.4 15 Sudoeste 22 Sudoeste 0 -- -- 79
2019-11-30 08:00:00 10.5 17 Sudoeste 21 Sudoeste 0 -- -- 83
2019-11-30 07:00:00 9.8 10 Sudoeste 17 Sudoeste 0 -- -- 87
2019-11-30 06:00:00 10.4 11 Sudoeste 22 Sudoeste 0 -- -- 84
2019-11-30 05:00:00 11.6 13 Sudoeste 21 Sudoeste 0 -- -- 80
2019-11-30 04:00:00 10.3 6 Sudoeste 15 Sudoeste 0 -- -- 84
2019-11-30 03:00:00 10.1 7 Sudoeste 15 Sudoeste 0 -- -- 85
2019-11-30 02:00:00 10.4 3 Sudoeste 14 Sudoeste 0 -- -- 85
2019-11-30 01:00:00 11.3 9 Sudoeste 15 Sudoeste 0 -- -- 82
2019-11-30 00:00:00 11.8 8 Sudoeste 14 Sudoeste 0 -- -- 81
2019-11-29 23:00:00 13.1 6 Sudoeste 17 Sudoeste 0 -- -- 77
2019-11-29 22:00:00 12.6 6 Sur 12 Oeste 0 -- -- 79
2019-11-29 21:00:00 13.7 8 Oeste 14 Oeste 0 -- -- 75
2019-11-29 20:00:00 14.2 8 Sudoeste 12 Sudoeste 0 -- -- 74
2019-11-29 19:00:00 14.2 3 Sudoeste 10 Sur 0 -- -- 73
2019-11-29 18:00:00 15 4 Sudoeste 15 Sudoeste 0 -- -- 70
2019-11-29 17:00:00 16.5 6 Oeste 14 Sudoeste 0 -- -- 64
2019-11-29 16:00:00 17.9 8 Oeste 23 Noroeste 0 -- -- 59
2019-11-29 15:00:00 18.1 10 Sudoeste 20 Oeste 0 -- -- 58
2019-11-29 14:00:00 17.7 10 Sudoeste 21 Oeste 0 -- -- 59
2019-11-29 13:00:00 17.5 8 Oeste 22 Noroeste 0 -- -- 59
2019-11-29 12:00:00 17.4 9 Oeste 32 Oeste 0 -- -- 60
2019-11-29 11:00:00 17 13 Oeste 23 Oeste 0 -- -- 60
2019-11-29 10:00:00 15.6 6 Sur 13 Sur 0 -- -- 64
2019-11-29 09:00:00 13.5 8 Sudoeste 15 Sudoeste 0 -- -- 68
2019-11-29 08:00:00 12.8 7 Sudoeste 15 Sur 0 -- -- 69
2019-11-29 07:00:00 12.9 7 Sur 18 Sudoeste 0 -- -- 68
2019-11-29 06:00:00 12.9 8 Sudoeste 22 Sur 0 -- -- 67
2019-11-29 05:00:00 12.2 5 Sur 27 Sudeste 0 -- -- 68
2019-11-29 04:00:00 12.3 8 Sur 23 Sur 0 -- -- 67
2019-11-29 03:00:00 11.9 10 Sudoeste 19 Sudoeste 0 -- -- 66
2019-11-29 02:00:00 12 4 Sudeste 12 Nordeste 0 -- -- 65
2019-11-29 01:00:00 11.1 3 Sur 12 Sur 0 -- -- 70
2019-11-29 00:00:00 10.9 5 Sur 12 Sudoeste 0 -- -- 69
2019-11-28 23:00:00 10.7 6 Sur 12 Oeste 0 -- -- 71
2019-11-28 22:00:00 10.7 4 Sudoeste 18 Sudoeste 0 -- -- 73
2019-11-28 21:00:00 11.2 12 Sudoeste 30 Sudoeste 0 -- -- 73
2019-11-28 20:00:00 11.8 8 Sudoeste 22 Sudoeste 0 -- -- 71
2019-11-28 19:00:00 12.6 10 Oeste 18 Sudoeste 0 -- -- 69
2019-11-28 18:00:00 13.6 6 Sudoeste 22 Sudoeste 0 -- -- 65
2019-11-28 17:00:00 14.9 5 Oeste 19 Sudoeste 0 -- -- 60
2019-11-28 16:00:00 15.4 7 Sudoeste 22 Sudoeste 0 -- -- 57
2019-11-28 15:00:00 16.5 11 Oeste 23 Sudoeste 0 -- -- 54
2019-11-28 14:00:00 16.8 8 Sudoeste 23 Oeste 0 -- -- 53
2019-11-28 13:00:00 16.7 11 Oeste 33 Oeste 0 -- -- 54
2019-11-28 12:00:00 15.6 13 Oeste 39 Oeste 0 -- -- 55
2019-11-28 11:00:00 14 17 Oeste 32 Oeste 0 -- -- 59
2019-11-28 10:00:00 13.4 9 Oeste 35 Oeste 0 -- -- 61
2019-11-28 09:00:00 12.6 3 Sudoeste 22 Sudoeste 0 -- -- 65
2019-11-28 08:00:00 11.1 7 Sudoeste 27 Oeste 0 -- -- 68
2019-11-28 07:00:00 11.1 4 Oeste 26 Oeste 0 -- -- 70
2019-11-28 06:00:00 11.2 4 Sur 17 Sur 0 -- -- 69
2019-11-28 05:00:00 11.3 6 Sudeste 21 Sudoeste 0 -- -- 67
2019-11-28 04:00:00 11.1 5 Sur 15 Sur 0 -- -- 63
2019-11-28 03:00:00 11 4 Sur 29 Sudoeste 0 -- -- 63
2019-11-28 02:00:00 11.7 10 Sudoeste 40 Oeste 0 -- -- 61
2019-11-28 01:00:00 12.2 10 Sudoeste 45 Oeste 0 -- -- 61
2019-11-28 00:00:00 12.7 21 Oeste 47 Sudoeste 0 -- -- 59
2019-11-27 23:00:00 12.4 6 Sudoeste 30 Oeste 0 -- -- 65
2019-11-27 22:00:00 12.3 5 Sudoeste 21 Oeste 0 -- -- 65
2019-11-27 21:00:00 12.3 6 Sudeste 23 Sudoeste 0 -- -- 62
2019-11-27 20:00:00 12.2 4 Este 19 Sudoeste 0 -- -- 59
2019-11-27 19:00:00 13.1 7 Oeste 24 Oeste 0 -- -- 56
2019-11-27 18:00:00 13.8 10 Oeste 48 Sudoeste 0 -- -- 55
2019-11-27 17:00:00 15.1 20 Oeste 47 Oeste 0 -- -- 48
2019-11-27 16:00:00 16.6 18 Oeste 51 Sudoeste 0 -- -- 48
2019-11-27 15:00:00 17.6 17 Oeste 52 Sudoeste 0 -- -- 46
2019-11-27 14:00:00 17.8 18 Oeste 39 Oeste 0 -- -- 51
2019-11-27 06:00:00 14.6 14 Sudoeste 31 Sudoeste 0 -- -- 70
2019-11-27 05:00:00 14.8 9 Sudoeste 19 Oeste 0 -- -- 70
2019-11-27 04:00:00 14.6 11 Oeste 25 Sudoeste 0 -- -- 69
2019-11-27 03:00:00 15.1 8 Sudoeste 18 Sudoeste 0 -- -- 64
2019-11-27 02:00:00 16 11 Sudoeste 34 Sudoeste 0 -- -- 60
2019-11-27 01:00:00 16.3 19 Sudoeste 39 Sudoeste 0 -- -- 58
2019-11-27 00:00:00 16.2 18 Sudoeste 34 Sudoeste 0 -- -- 59
2019-11-26 23:00:00 16.2 12 Sudoeste 25 Oeste 0 -- -- 60
2019-11-26 22:00:00 14.2 5 Sudoeste 11 Sudoeste 0 -- -- 73
2019-11-26 21:00:00 15.1 8 Sudoeste 20 Oeste 0 -- -- 70
2019-11-26 20:00:00 15 5 Sudoeste 15 Oeste 0 -- -- 71
2019-11-26 19:00:00 15.3 3 Sudoeste 23 Oeste 0 -- -- 71
2019-11-26 18:00:00 16.1 8 Sur 19 Sur 0 -- -- 69
2019-11-26 17:00:00 17.2 9 Sudoeste 31 Oeste 0 -- -- 64
2019-11-26 16:00:00 18.8 9 Sudoeste 32 Oeste 0 -- -- 59
2019-11-26 15:00:00 19.2 11 Oeste 27 Oeste 0 -- -- 56
2019-11-26 14:00:00 18.7 13 Oeste 30 Oeste 0 -- -- 53
2019-11-26 13:00:00 18.5 9 Oeste 33 Sudoeste 0 -- -- 53
2019-11-26 12:00:00 16.8 14 Sudoeste 27 Oeste 0 -- -- 56
2019-11-26 11:00:00 15.8 12 Oeste 28 Sudoeste 0 -- -- 58
2019-11-26 10:00:00 15.2 3 Oeste 20 Oeste 0 -- -- 60
2019-11-26 09:00:00 13 2 Sur 27 Sudoeste 0 -- -- 67
2019-11-26 08:00:00 12.8 11 Sudoeste 32 Sudoeste 0 -- -- 69
2019-11-26 07:00:00 12.4 12 Oeste 27 Oeste 0 -- -- 71
2019-11-26 06:00:00 12.4 10 Oeste 19 Oeste 0 -- -- 73
2019-11-26 05:00:00 12.9 8 Sur 30 Sudoeste 0 -- -- 74
2019-11-26 04:00:00 12.2 2 Oeste 13 Sudoeste 0 -- -- 79
2019-11-26 03:00:00 12.3 4 Sudoeste 10 Oeste 0 -- -- 80
2019-11-26 02:00:00 13.2 3 Sur 18 Oeste 0 -- -- 76
2019-11-26 01:00:00 14 9 Sudoeste 30 Oeste 0 -- -- 74
2019-11-26 00:00:00 13.8 6 Sudoeste 17 Sudoeste 0 -- -- 76
2019-11-25 23:00:00 13.9 8 Sudoeste 14 Oeste 0 -- -- 76
2019-11-25 22:00:00 13.4 2 Oeste 19 Oeste 0 -- -- 75
2019-11-25 21:00:00 13.1 3 Noroeste 9 Sudeste 0 -- -- 78
2019-11-25 20:00:00 13.7 3 Noroeste 19 Noroeste 0 -- -- 78
2019-11-25 19:00:00 14.9 8 Oeste 22 Sudoeste 0 -- -- 73
2019-11-25 18:00:00 15.2 5 Sur 21 Sudoeste 0 -- -- 70
2019-11-25 17:00:00 15.9 13 Oeste 29 Sudoeste 0 -- -- 66
2019-11-25 16:00:00 17.4 8 Sudoeste 45 Oeste 0 -- -- 60
2019-11-25 15:00:00 16.9 12 Sudoeste 37 Oeste 0 -- -- 62
2019-11-25 14:00:00 17.2 13 Oeste 32 Oeste 0 -- -- 60
2019-11-25 13:00:00 15.7 10 Oeste 27 Noroeste 0 -- -- 65
2019-11-25 12:00:00 15 5 Sudoeste 30 Este 0 -- -- 67
2019-11-25 11:00:00 15.2 11 Sudoeste 44 Oeste 0 -- -- 67
2019-11-25 10:00:00 14.2 16 Sudoeste 30 Sudoeste 0 -- -- 68
2019-11-25 09:00:00 14.3 10 Oeste 34 Sur 0 -- -- 68
2019-11-25 08:00:00 12.9 7 Sur 23 Sudoeste 0 -- -- 73
2019-11-25 07:00:00 11.2 3 Sur 35 Oeste 0 -- -- 75
2019-11-25 06:00:00 11.7 9 Sudoeste 27 Sudoeste 0 -- -- 70
2019-11-25 05:00:00 10.4 8 Sur 23 Sudoeste 0 -- -- 73
2019-11-25 04:00:00 10.3 4 Sur 27 Oeste 0 -- -- 72
2019-11-25 03:00:00 9.6 7 Sudoeste 22 Sudoeste 0 -- -- 72
2019-11-25 02:00:00 9.9 9 Sudoeste 23 Sudoeste 0 -- -- 66
2019-11-25 01:00:00 9.3 4 Sur 32 Oeste 0 -- -- 67
2019-11-25 00:00:00 9.7 17 Sudoeste 32 Sudoeste 0 -- -- 65
2019-11-24 23:00:00 9.5 20 Oeste 43 Oeste 0 -- -- 62
2019-11-24 22:00:00 9.6 17 Oeste 35 Oeste 0 -- -- 60
2019-11-24 21:00:00 8.8 4 Sudoeste 23 Sudoeste 0 -- -- 62
2019-11-24 20:00:00 9.6 14 Sudoeste 28 Sudoeste 0 -- -- 56
2019-11-24 19:00:00 10 9 Oeste 23 Sudoeste 0 -- -- 53
2019-11-24 18:00:00 11 15 Oeste 27 Oeste 0 -- -- 52
2019-11-24 17:00:00 12 7 Oeste 28 Oeste 0 -- -- 49
2019-11-24 16:00:00 13.8 10 Oeste 30 Oeste 0 -- -- 45
2019-11-24 15:00:00 13.5 10 Sudoeste 28 Sudoeste 0 -- -- 46
2019-11-24 14:00:00 12.2 11 Sudoeste 27 Sudoeste 0 -- -- 51
2019-11-24 13:00:00 11.4 13 Sudoeste 31 Sudoeste 0 -- -- 53
2019-11-24 12:00:00 13.5 7 Sudoeste 30 Sudoeste 0 -- -- 47
2019-11-24 11:00:00 11.8 11 Oeste 38 Sudoeste 0 -- -- 51
2019-11-24 10:00:00 10.4 19 Oeste 35 Oeste 0 -- -- 54
2019-11-24 09:00:00 9.2 19 Oeste 41 Sudoeste 0 -- -- 58
2019-11-24 08:00:00 8.6 21 Oeste 45 Oeste 0 -- -- 58
2019-11-24 07:00:00 7.7 11 Oeste 28 Sudoeste 0 -- -- 64
2019-11-24 06:00:00 7.3 4 Oeste 30 Sudoeste 0 -- -- 66
2019-11-24 05:00:00 8.5 12 Oeste 38 Sudoeste 0 -- -- 60
2019-11-24 04:00:00 8.8 20 Oeste 45 Oeste 0 -- -- 59
2019-11-24 03:00:00 9.8 18 Oeste 46 Oeste 0 -- -- 53
2019-11-24 02:00:00 9.9 19 Oeste 49 Oeste 0 -- -- 52
2019-11-24 01:00:00 9.8 23 Oeste 53 Noroeste 0 -- -- 55
2019-11-24 00:00:00 9.9 14 Oeste 40 Oeste 0 -- -- 55
2019-11-23 23:00:00 9.9 15 Oeste 55 Oeste 0 -- -- 57
2019-11-23 22:00:00 10.6 30 Oeste 63 Oeste 0 -- -- 55
2019-11-23 21:00:00 10.4 6 Sudoeste 40 Noroeste 0 -- -- 55
2019-11-23 20:00:00 10.7 13 Oeste 33 Noroeste 0 -- -- 55
2019-11-23 19:00:00 10.8 10 Noroeste 42 Noroeste 0 -- -- 52
2019-11-23 18:00:00 11.1 8 Noroeste 33 Oeste 0 -- -- 50
2019-11-23 17:00:00 11.6 9 Sudoeste 46 Oeste 0 -- -- 49
2019-11-23 16:00:00 12.1 17 Oeste 46 Oeste 0 -- -- 50
2019-11-23 15:00:00 12.6 17 Oeste 40 Oeste 0 -- -- 48
2019-11-23 14:00:00 12.1 22 Oeste 66 Noroeste 0 -- -- 52
2019-11-23 13:00:00 11.1 40 Oeste 73 Oeste 0.2 -- -- 56
2019-11-23 12:00:00 10 38 Oeste 67 Oeste 0.2 -- -- 68
2019-11-23 11:00:00 10.9 30 Oeste 65 Oeste 0 -- -- 58
2019-11-23 10:00:00 10.2 34 Oeste 76 Oeste 0 -- -- 60
2019-11-23 09:00:00 10.2 34 Oeste 79 Oeste 0 -- -- 62
2019-11-23 08:00:00 9.7 15 Oeste 50 Oeste 0 -- -- 68
2019-11-23 07:00:00 10.2 27 Oeste 72 Noroeste 0.2 -- -- 66
2019-11-23 06:00:00 9.8 17 Oeste 35 Sudoeste 0.4 -- -- 66
2019-11-23 05:00:00 11.3 14 Sudoeste 32 Oeste 0 -- -- 65
2019-11-23 04:00:00 10.9 6 Sudoeste 25 Sudoeste 0 -- -- 70
2019-11-23 03:00:00 11.9 12 Oeste 27 Sudoeste 0 -- -- 67
2019-11-23 02:00:00 11 9 Sudoeste 25 Oeste 0 -- -- 74
2019-11-23 01:00:00 12.6 14 Sudoeste 26 Sudoeste 0 -- -- 68
2019-11-23 00:00:00 13.1 17 Sudoeste 32 Oeste 0 -- -- 80
2019-11-22 23:00:00 13 14 Sudoeste 24 Sudoeste 0 -- -- 81
2019-11-22 22:00:00 12.5 10 Sudoeste 27 Sudoeste 0 -- -- 82
2019-11-22 21:00:00 12.7 13 Sudoeste 30 Oeste 1.8 -- -- 83
2019-11-22 20:00:00 12.4 9 Sudoeste 34 Sudoeste 1.2 -- -- 86
2019-11-22 19:00:00 12.1 18 Sudoeste 40 Sudoeste 2.2 -- -- 86
2019-11-22 18:00:00 12.4 15 Sudoeste 38 Sur 0.2 -- -- 85
2019-11-22 17:00:00 12.7 16 Sudoeste 54 Sudoeste 0.8 -- -- 83
2019-11-22 16:00:00 12 19 Sudoeste 44 Sudoeste 0 -- -- 88
2019-11-22 15:00:00 12.5 19 Sudoeste 37 Sudoeste 0 -- -- 84
2019-11-22 14:00:00 14.7 12 Sudoeste 39 Sudoeste 0 -- -- 68
2019-11-22 13:00:00 14.5 15 Sudoeste 29 Sudoeste 0 -- -- 68
2019-11-22 12:00:00 14.4 9 Sudoeste 21 Sudoeste 0 -- -- 64
2019-11-22 11:00:00 13 3 Sudoeste 9 Sudoeste 0 -- -- 70
2019-11-22 10:00:00 11.3 8 Sudoeste 14 Oeste 0 -- -- 73
2019-11-22 09:00:00 9.5 6 Oeste 12 Oeste 0 -- -- 79
2019-11-22 08:00:00 8.3 10 Sudoeste 19 Sudoeste 0.2 -- -- 83
2019-11-22 07:00:00 8.4 6 Sudoeste 13 Sudoeste 0 -- -- 84
2019-11-22 06:00:00 8.6 8 Sudoeste 14 Oeste 0 -- -- 83
2019-11-22 05:00:00 7.8 10 Sudoeste 15 Oeste 0 -- -- 86
2019-11-22 04:00:00 8.1 10 Sudoeste 15 Sudoeste 0 -- -- 86
2019-11-22 03:00:00 8.3 5 Oeste 12 Sudoeste 0 -- -- 86
2019-11-22 02:00:00 9.2 7 Sudoeste 14 Sudoeste 0 -- -- 84
2019-11-22 01:00:00 9.9 4 Sudoeste 12 Sudoeste 0 -- -- 81
2019-11-22 00:00:00 10.3 7 Oeste 11 Sudoeste 0 -- -- 80
2019-11-21 23:00:00 10.4 5 Sudoeste 11 Sudoeste 0 -- -- 79
2019-11-21 22:00:00 10.6 4 Sudoeste 8 Sur 0.2 -- -- 76
2019-11-21 21:00:00 10.9 3 Sudoeste 10 Sur 0 -- -- 71
2019-11-21 20:00:00 11.1 5 Sur 12 Sur 0 -- -- 71
2019-11-21 19:00:00 11.2 4 Sur 8 Sur 0 -- -- 69
2019-11-21 18:00:00 11.8 3 Sur 14 Sudoeste 0 -- -- 65
2019-11-21 17:00:00 13.3 8 Sudoeste 24 Sudoeste 0 -- -- 58
2019-11-21 16:00:00 14.1 9 Sudoeste 27 Oeste 0 -- -- 56
2019-11-21 15:00:00 13.5 12 Sudoeste 24 Sudoeste 0 -- -- 56
2019-11-21 14:00:00 12.5 12 Sudoeste 27 Oeste 0 -- -- 60
2019-11-21 13:00:00 12.5 9 Sudoeste 18 Sudoeste 0 -- -- 61
2019-11-21 12:00:00 12 5 Sudoeste 16 Oeste 0 -- -- 64
2019-11-21 11:00:00 11.2 11 Sudoeste 22 Sudoeste 0 -- -- 67
2019-11-21 10:00:00 10 3 Sudoeste 8 Sudoeste 0 -- -- 71
2019-11-21 09:00:00 8.8 3 Sudoeste 13 Sudoeste 0 -- -- 76
2019-11-21 08:00:00 -- -- -- -- -- -- -- -- --
2019-11-21 07:00:00 -- -- -- -- -- -- -- -- --
2019-11-21 06:00:00 -- -- -- -- -- -- -- -- --
2019-11-21 05:00:00 -- -- -- -- -- -- -- -- --
2019-11-21 04:00:00 -- -- -- -- -- -- -- -- --
2019-11-21 03:00:00 -- -- -- -- -- -- -- -- --
2019-11-21 02:00:00 -- -- -- -- -- -- -- -- --
2019-11-21 01:00:00 -- -- -- -- -- -- -- -- --
2019-11-21 00:00:00 -- -- -- -- -- -- -- -- --
2019-11-20 23:00:00 -- -- -- -- -- -- -- -- --
2019-11-20 22:00:00 -- -- -- -- -- -- -- -- --
2019-11-20 21:00:00 -- -- -- -- -- -- -- -- --
2019-11-20 20:00:00 -- -- -- -- -- -- -- -- --
2019-11-20 19:00:00 9.9 4 Sur 18 Sudoeste 0 -- -- 71
2019-11-20 18:00:00 10.3 6 Sudoeste 20 Sudoeste 0 -- -- 69
2019-11-20 17:00:00 11.2 9 Sudoeste 24 Sur 0 -- -- 65
2019-11-20 16:00:00 12.2 10 Sur 21 Sur 0 -- -- 60
2019-11-20 15:00:00 13.7 7 Sudoeste 23 Oeste 0 -- -- 42
2019-11-20 14:00:00 14.1 9 Sudoeste 23 Oeste 0 -- -- 32
2019-11-20 13:00:00 13.8 7 Sur 20 Sur 0 -- -- 40
2019-11-20 12:00:00 13 7 Sudoeste 20 Oeste 0 -- -- 44
2019-11-20 11:00:00 11.3 3 Este 6 Este 0 -- -- 53
2019-11-20 10:00:00 8.7 3 Sudoeste 13 Sudoeste 0 -- -- 60
2019-11-20 09:00:00 5 9 Sudoeste 17 Sudoeste 0 -- -- 71
2019-11-20 08:00:00 3.8 10 Sudoeste 16 Sudoeste 0 -- -- 75
2019-11-20 07:00:00 4 5 Sudoeste 14 Sudoeste 0 -- -- 75
2019-11-20 06:00:00 4.7 5 Sudoeste 13 Sudoeste 0 -- -- 73
2019-11-20 05:00:00 5.4 8 Sudoeste 15 Sudoeste 0 -- -- 71
2019-11-20 04:00:00 5.1 9 Sudoeste 15 Sudoeste 0 -- -- 72
2019-11-20 03:00:00 5.7 8 Sudoeste 16 Sudoeste 0 -- -- 69
2019-11-20 02:00:00 5.8 8 Sudoeste 13 Sudoeste 0 -- -- 69
2019-11-20 01:00:00 5.8 5 Oeste 14 Sudoeste 0 -- -- 69
2019-11-20 00:00:00 6.2 6 Sudoeste 15 Sudoeste 0 -- -- 67
2019-11-19 23:00:00 6.6 5 Sudoeste 15 Sudoeste 0 -- -- 65
2019-11-19 22:00:00 7.1 5 Sudoeste 12 Sudoeste 0 -- -- 63
2019-11-19 21:00:00 7.9 5 Sur 13 Sudoeste 0 -- -- 60
2019-11-19 20:00:00 7.4 7 Sur 16 Sudoeste 0 -- -- 62
2019-11-19 19:00:00 7.7 6 Sudoeste 10 Sudoeste 0 -- -- 62
2019-11-19 18:00:00 9 4 Sudoeste 15 Sudoeste 0 -- -- 55
2019-11-19 17:00:00 11.1 6 Sudoeste 19 Oeste 0 -- -- 47
2019-11-19 16:00:00 12.5 8 Sudoeste 22 Oeste 0 -- -- 41
2019-11-19 15:00:00 12.5 8 Oeste 22 Oeste 0 -- -- 41
2019-11-19 14:00:00 12.5 9 Oeste 27 Sudoeste 0 -- -- 41
2019-11-19 13:00:00 12.5 8 Oeste 22 Noroeste 0 -- -- 36
2019-11-19 12:00:00 12 3 Sudeste 13 Este 0 -- -- 38
2019-11-19 11:00:00 9.6 6 Sur 27 Oeste 0 -- -- 47
2019-11-19 10:00:00 7 6 Sur 15 Sudoeste 0 -- -- 58
2019-11-19 09:00:00 4.4 8 Sudoeste 22 Sudoeste 0 -- -- 66
2019-11-19 08:00:00 2.4 6 Sudoeste 19 Sudoeste 0 -- -- 74
2019-11-19 07:00:00 2.3 7 Sudoeste 15 Oeste 0 -- -- 74
2019-11-19 06:00:00 2.7 8 Sudoeste 13 Sudoeste 0 -- -- 73
2019-11-19 05:00:00 2.9 0 Calma 17 Sudoeste 0 -- -- 74
2019-11-19 04:00:00 3.7 8 Sudoeste 20 Sudoeste 0 -- -- 68
2019-11-19 03:00:00 3.8 11 Sudoeste 20 Sudoeste 0 -- -- 67
2019-11-19 02:00:00 4.6 10 Sudoeste 19 Sudoeste 0 -- -- 64
2019-11-19 01:00:00 5.7 9 Sudoeste 15 Sudoeste 0 -- -- 59
2019-11-19 00:00:00 5.4 6 Sudoeste 14 Sudoeste 0 -- -- 62
2019-11-18 23:00:00 5.2 7 Sudoeste 12 Sur 0 -- -- 65
2019-11-18 22:00:00 6.2 2 Noroeste 14 Sudoeste 0 -- -- 59
2019-11-18 21:00:00 6.5 0 Calma 6 Oeste 0 -- -- 62
2019-11-18 20:00:00 7.8 0 Calma 9 Oeste 0 -- -- 57
2019-11-18 19:00:00 9.3 4 Noroeste 14 Noroeste 0 -- -- 54
2019-11-18 18:00:00 10 5 Norte 22 Noroeste 0 -- -- 52
2019-11-18 17:00:00 11.3 4 Oeste 18 Noroeste 0 -- -- 51
2019-11-18 16:00:00 11.1 5 Noroeste 19 Oeste 0 -- -- 55
2019-11-18 15:00:00 12.2 6 Noroeste 22 Oeste 0 -- -- 52
2019-11-18 14:00:00 12.2 5 Noroeste 16 Este 0 -- -- 50
2019-11-18 13:00:00 11.1 10 Nordeste 19 Este 0 -- -- 53
2019-11-18 12:00:00 9.9 9 Este 19 Norte 0 -- -- 59
2019-11-18 11:00:00 9.9 10 Nordeste 23 Norte 0 -- -- 58
2019-11-18 10:00:00 8.9 4 Nordeste 13 Este 0 -- -- 66
2019-11-18 09:00:00 7.4 2 Este 10 Sudeste 0 -- -- 74
2019-11-18 08:00:00 7.6 3 Oeste 11 Oeste 0 -- -- 70
2019-11-18 07:00:00 7.5 0 Calma 15 Sudoeste 0 -- -- 79
2019-11-18 06:00:00 8.2 7 Sudoeste 12 Sudoeste 0 -- -- 76
2019-11-18 05:00:00 8.4 4 Sudeste 13 Sur 0 -- -- 73
2019-11-18 04:00:00 7.4 4 Sur 11 Sudoeste 0 -- -- 84
2019-11-18 03:00:00 8.1 7 Sur 19 Oeste 0.2 -- -- 80
2019-11-18 02:00:00 8.6 8 Oeste 24 Oeste 1.2 -- -- 80
2019-11-18 01:00:00 9 6 Oeste 24 Oeste 1.6 -- -- 85
2019-11-18 00:00:00 9.5 6 Sudoeste 22 Oeste 1.2 -- -- 83
2019-11-17 23:00:00 10.4 10 Sudoeste 29 Oeste 0 -- -- 75
2019-11-17 22:00:00 10.7 14 Sudoeste 26 Oeste 0 -- -- 68
2019-11-17 21:00:00 10.7 10 Sudoeste 23 Sudoeste 0 -- -- 67
2019-11-17 20:00:00 10.6 8 Sudoeste 36 Sudoeste 0 -- -- 61
2019-11-17 19:00:00 11.3 13 Oeste 37 Oeste 0 -- -- 60
2019-11-17 18:00:00 11.5 16 Sudoeste 32 Sudoeste 0 -- -- 62
2019-11-17 17:00:00 12.1 13 Sudoeste 38 Sudoeste 0 -- -- 59
2019-11-17 16:00:00 13.2 16 Oeste 33 Oeste 0 -- -- 50
2019-11-17 15:00:00 12.9 16 Oeste 36 Oeste 0 -- -- 43
2019-11-17 14:00:00 12.3 12 Oeste 31 Oeste 0 -- -- 42
2019-11-17 13:00:00 12.5 12 Sudoeste 37 Oeste 0 -- -- 44
2019-11-17 12:00:00 11.2 17 Oeste 37 Oeste 0 -- -- 46
2019-11-17 11:00:00 10.1 17 Oeste 37 Oeste 0 -- -- 50
2019-11-17 10:00:00 8.1 16 Oeste 30 Oeste 0 -- -- 54
2019-11-17 09:00:00 6.6 10 Sudoeste 25 Sudoeste 0 -- -- 57
2019-11-17 08:00:00 5.2 17 Oeste 42 Oeste 0 -- -- 60
2019-11-17 07:00:00 5.4 19 Oeste 39 Sudoeste 0 -- -- 57
2019-11-17 06:00:00 5.8 18 Oeste 40 Sudoeste 0 -- -- 57
2019-11-17 05:00:00 6.3 15 Oeste 32 Sudoeste 0 -- -- 56
2019-11-17 04:00:00 6.1 8 Sudoeste 24 Sudoeste 0 -- -- 60
2019-11-17 03:00:00 6.3 8 Sudoeste 25 Sudeste 0 -- -- 59
2019-11-17 02:00:00 6.5 8 Sudoeste 23 Sudoeste 0 -- -- 58
2019-11-17 01:00:00 6.6 13 Oeste 25 Sudoeste 0 -- -- 58
2019-11-17 00:00:00 7.1 10 Oeste 32 Oeste 0 -- -- 55
2019-11-16 23:00:00 7.7 14 Oeste 38 Oeste 0 -- -- 52
2019-11-16 22:00:00 7.9 10 Sudoeste 27 Sur 0 -- -- 51
2019-11-16 21:00:00 8.1 12 Oeste 30 Noroeste 0 -- -- 50
2019-11-16 20:00:00 8.3 14 Sudoeste 27 Sudoeste 0 -- -- 53
2019-11-16 19:00:00 8.6 9 Oeste 22 Sudoeste 0 -- -- 48
2019-11-16 18:00:00 9.4 5 Sur 23 Sudoeste 0 -- -- 48
2019-11-16 17:00:00 11.6 4 Noroeste 16 Noroeste 0 -- -- 41
2019-11-16 16:00:00 12.5 6 Noroeste 19 Noroeste 0 -- -- 40
2019-11-16 15:00:00 13 5 Noroeste 19 Noroeste 0 -- -- 39
2019-11-16 14:00:00 12.8 5 Noroeste 14 Este 0 -- -- 39
2019-11-16 13:00:00 10.6 7 Este 15 Este 0 -- -- 48
2019-11-16 12:00:00 9.2 6 Nordeste 20 Nordeste 0 -- -- 52
2019-11-16 11:00:00 8.6 6 Este 17 Oeste 0 -- -- 53
2019-11-16 10:00:00 7.3 9 Oeste 20 Oeste 0 -- -- 57
2019-11-16 09:00:00 3.9 4 Sudoeste 10 Sudoeste 0 -- -- 72
2019-11-16 08:00:00 3.8 8 Sudoeste 15 Sur 0 -- -- 72
2019-11-16 07:00:00 3.2 8 Sudoeste 12 Sur 0 -- -- 75
2019-11-16 06:00:00 4.1 6 Sudoeste 13 Sudoeste 0 -- -- 72
2019-11-16 05:00:00 4.4 4 Sudoeste 13 Sudoeste 0 -- -- 70
2019-11-16 04:00:00 4 8 Sudoeste 21 Sudoeste 0 -- -- 71
2019-11-16 03:00:00 4.1 13 Sudoeste 19 Sudoeste 0 -- -- 71
2019-11-16 02:00:00 6 8 Sudoeste 13 Sudoeste 0 -- -- 64
2019-11-16 01:00:00 5.3 6 Sudoeste 13 Sur 0 -- -- 69
2019-11-16 00:00:00 6.1 8 Sudoeste 12 Sudoeste 0 -- -- 66